Meteo Giornale » Osservazioni meteo Stati Uniti (USA) » Los Angeles

ore: 23:53 - Osservazioni Meteo Los Angeles
Lat. 33° 56' N Lon. 118° 23' W Alt. 38 metri s.l.m.

poco_nuvoloso America/Los_Angeles

21 °C

Poco Nuvoloso

Temp. 24 Ore

19 °C

30 °C

Nord

5.5 Km/h

Dew point 14 °C

Umidità 64 %

Visibilità  10 Km

Il sole sorge alle ore 06:59

Il sole tramonta alle ore 18:17

Data e Ora Cielo e Fenomeni T °C DP °C Um. % Pres. hPa Vis. km Vento km/h
Ieri h: 23:53 poco_nuvoloso Poco Nuvoloso 21 14 64 1013 10 N 5.5
Ieri h: 22:53 poco_nuvoloso Poco Nuvoloso 23 14 56 1013 10 S 9.3
Ieri h: 21:53 poco_nuvoloso Poco Nuvoloso 23 14 56 1012 10 E/SE 11.1
Ieri h: 20:53 poco_nuvoloso Poco Nuvoloso 23 14 56 1012 10 S/SE 7.4
Ieri h: 19:53 poco_nuvoloso Poco Nuvoloso 24 13 50 1012 10 S 11.1
Ieri h: 18:53 nuvoloso Nuvoloso 24 12 47 1012 14 O/SO 9.3
Ieri h: 17:53 nuvoloso Nuvoloso 24 13 50 1012 10 O/SO 14.8
Ieri h: 16:53 nuvoloso Nuvoloso 26 13 44 1012 10 O 14.8
Ieri h: 15:53 nuvoloso Nuvoloso 26 14 47 1012 10 O 14.8
Ieri h: 14:53 poco_nuvoloso Poco Nuvoloso 28 9 30 1013 10 O/SO 18.5
Ieri h: 13:53 nuvoloso Nuvoloso 26 14 47 1014 10 O/SO 20.3
Ieri h: 12:53 nuvoloso Nuvoloso 26 17 57 1015 10 O/SO 20.3
Ieri h: 11:53 nuvoloso Nuvoloso 30 4 19 1015 10 O 16.7
Ieri h: 10:53 nuvoloso Nuvoloso 29 3 18 1016 10 N 5.5
Ieri h: 09:53 nuvoloso Nuvoloso 27 10 34 1016 10 N 5.5
Ieri h: 08:53 molto_nuvoloso Molto Nuvoloso 25 8 33 1016 10 NO 9.3
Ieri h: 07:53 molto_nuvoloso Molto Nuvoloso 22 2 26 1016 10 NO 9.3
Ieri h: 06:53 nuvoloso Nuvoloso 21 1 26 1015 10 N 0
Ieri h: 05:53 nuvoloso Nuvoloso 20 5 37 1015 10 N 0
Ieri h: 05:48 nuvoloso Nuvoloso 19 5 39 1015 10 N 0
Ieri h: 04:53 poco_nuvoloso Poco Nuvoloso 21 6 37 1014 10 SE 9.3
Ieri h: 03:53 poco_nuvoloso Poco Nuvoloso 19 9 52 1014 10 N 5.5
Ieri h: 02:53 poco_nuvoloso Poco Nuvoloso 21 9 46 1015 10 N 0
Ieri h: 01:53 poco_nuvoloso Poco Nuvoloso 22 9 43 1015 10 N 0
Ieri h: 00:53 poco_nuvoloso Poco Nuvoloso 21 10 49 1015 10 N 5.5